createdAt,value
2022-10-04T00:02:01.146Z,15.27
2022-10-04T00:04:28.208Z,15.35
2022-10-04T00:06:56.144Z,14.97
2022-10-04T00:09:23.801Z,15.03
2022-10-04T00:11:51.231Z,14.99
2022-10-04T00:14:19.850Z,14.91
2022-10-04T00:16:46.548Z,14.94
2022-10-04T00:19:19.605Z,14.85
2022-10-04T00:21:58.390Z,14.98
2022-10-04T00:24:26.473Z,14.98
2022-10-04T00:26:53.073Z,15.03
2022-10-04T00:29:26.570Z,14.88
2022-10-04T00:32:08.526Z,14.84
2022-10-04T00:34:35.206Z,14.84
2022-10-04T00:37:02.593Z,15.18
2022-10-04T00:39:32.376Z,14.96
2022-10-04T00:42:03.874Z,15.06
2022-10-04T00:44:43.017Z,15.25
2022-10-04T00:47:24.432Z,15.16
2022-10-04T00:49:52.494Z,15.17
2022-10-04T00:52:20.488Z,15.10
2022-10-04T00:54:50.323Z,15.13
2022-10-04T00:57:21.235Z,15.21
2022-10-04T00:59:52.378Z,14.91
2022-10-04T01:02:37.760Z,15.04
2022-10-04T01:05:13.765Z,15.03
2022-10-04T01:07:44.944Z,15.02
2022-10-04T01:10:12.483Z,15.11
2022-10-04T01:13:00.296Z,15.02
2022-10-04T01:15:27.331Z,14.71
2022-10-04T01:18:09.270Z,14.84
2022-10-04T01:20:54.409Z,14.93
2022-10-04T01:23:41.692Z,14.53
2022-10-04T01:26:26.897Z,14.61
2022-10-04T01:28:53.936Z,14.80
2022-10-04T01:31:21.180Z,14.66
2022-10-04T01:33:48.106Z,14.67
2022-10-04T01:36:15.130Z,14.68
2022-10-04T01:38:43.511Z,14.87
2022-10-04T01:41:10.226Z,14.80
2022-10-04T01:43:39.081Z,14.65
2022-10-04T01:46:13.573Z,14.60
2022-10-04T01:48:42.136Z,14.87
2022-10-04T01:51:13.417Z,14.75
2022-10-04T01:53:45.530Z,14.66
2022-10-04T01:56:16.786Z,14.87
2022-10-04T01:58:44.989Z,14.85
2022-10-04T02:01:13.912Z,14.80
2022-10-04T02:03:42.609Z,14.85
2022-10-04T02:06:09.669Z,14.96
2022-10-04T02:08:38.162Z,14.99
2022-10-04T02:11:05.554Z,14.93
2022-10-04T02:13:39.132Z,14.92
2022-10-04T02:16:09.335Z,15.03
2022-10-04T02:18:37.007Z,14.99
2022-10-04T02:21:04.689Z,14.74
2022-10-04T02:23:31.597Z,15.02
2022-10-04T02:25:59.107Z,14.97
2022-10-04T02:28:25.816Z,14.91
2022-10-04T02:31:11.610Z,14.91
2022-10-04T02:33:39.168Z,14.88
2022-10-04T02:36:07.193Z,14.97
2022-10-04T02:38:35.583Z,14.97
2022-10-04T02:41:03.840Z,14.80
2022-10-04T02:43:35.872Z,14.76
2022-10-04T02:46:29.431Z,14.78
2022-10-04T02:48:56.843Z,14.75
2022-10-04T02:51:23.654Z,14.95
2022-10-04T02:54:02.268Z,14.51
2022-10-04T02:56:30.235Z,14.73
2022-10-04T02:59:00.410Z,14.84
2022-10-04T03:01:28.339Z,14.85
2022-10-04T03:03:56.986Z,14.93
2022-10-04T03:06:24.589Z,14.91
2022-10-04T03:08:53.043Z,14.76
2022-10-04T03:11:21.003Z,14.77
2022-10-04T03:13:48.773Z,14.70
2022-10-04T03:16:15.844Z,14.86
2022-10-04T03:18:42.834Z,14.88
2022-10-04T03:21:09.818Z,14.72
2022-10-04T03:23:36.491Z,14.48
2022-10-04T03:26:04.324Z,14.72
2022-10-04T03:28:31.109Z,14.59
2022-10-04T03:30:58.171Z,14.57
2022-10-04T03:33:25.525Z,14.66
2022-10-04T03:35:53.154Z,14.67
2022-10-04T03:38:19.848Z,14.62
2022-10-04T03:40:52.992Z,14.84
2022-10-04T03:43:20.645Z,14.68
2022-10-04T03:45:49.938Z,14.98
2022-10-04T03:48:18.513Z,14.71
2022-10-04T03:50:48.254Z,14.63
2022-10-04T03:53:18.313Z,14.70
2022-10-04T03:55:44.962Z,14.66
2022-10-04T03:58:12.820Z,14.72
2022-10-04T04:00:40.467Z,14.72
2022-10-04T04:03:08.139Z,14.62
2022-10-04T04:05:35.875Z,14.55
2022-10-04T04:08:23.647Z,14.66
2022-10-04T04:10:51.463Z,14.64
2022-10-04T04:13:24.084Z,14.55
2022-10-04T04:15:51.063Z,14.59
2022-10-04T04:18:24.260Z,14.66
2022-10-04T04:20:51.949Z,14.71
2022-10-04T04:23:28.908Z,14.49
2022-10-04T04:25:56.225Z,14.09
2022-10-04T04:28:41.532Z,14.57
2022-10-04T04:31:10.448Z,14.60
2022-10-04T04:33:44.871Z,14.58
2022-10-04T04:36:12.347Z,14.63
2022-10-04T04:38:57.569Z,14.52
2022-10-04T04:41:24.802Z,14.64
2022-10-04T04:43:51.436Z,14.51
2022-10-04T04:46:29.721Z,14.65
2022-10-04T04:49:01.192Z,14.71
2022-10-04T04:51:27.961Z,14.72
2022-10-04T04:53:54.637Z,14.65
2022-10-04T04:56:23.513Z,14.53
2022-10-04T04:58:50.393Z,14.58
2022-10-04T05:01:34.959Z,14.65
2022-10-04T05:04:05.001Z,14.61
2022-10-04T05:06:32.671Z,14.70
2022-10-04T05:08:59.655Z,14.65
2022-10-04T05:11:27.381Z,14.56
2022-10-04T05:13:56.980Z,14.64
2022-10-04T05:16:28.423Z,14.53
2022-10-04T05:19:02.392Z,14.73
2022-10-04T05:21:30.128Z,14.87
2022-10-04T05:23:57.555Z,14.86
2022-10-04T05:26:27.712Z,14.80
2022-10-04T05:28:55.495Z,14.49
2022-10-04T05:31:32.322Z,14.64
2022-10-04T05:33:59.981Z,14.93
2022-10-04T05:36:36.530Z,14.87
2022-10-04T05:39:22.139Z,14.85
2022-10-04T05:42:02.816Z,14.74
2022-10-04T05:44:31.339Z,14.88
2022-10-04T05:47:01.250Z,14.84
2022-10-04T05:49:33.096Z,15.02
2022-10-04T05:52:03.883Z,14.92
2022-10-04T05:54:32.902Z,15.01
2022-10-04T05:57:19.256Z,14.94
2022-10-04T05:59:46.401Z,14.99
2022-10-04T06:02:32.103Z,14.93
2022-10-04T06:05:17.786Z,15.20
2022-10-04T06:07:50.473Z,15.26
2022-10-04T06:10:35.614Z,15.20
2022-10-04T06:13:04.469Z,15.25
2022-10-04T06:15:36.601Z,15.32
2022-10-04T06:18:05.901Z,15.56
2022-10-04T06:20:35.854Z,15.33
2022-10-04T06:23:03.553Z,15.38
2022-10-04T06:25:38.637Z,15.23
2022-10-04T06:28:05.595Z,15.52
2022-10-04T06:30:36.588Z,15.46
2022-10-04T06:33:32.809Z,15.39
2022-10-04T06:36:18.571Z,15.68
2022-10-04T06:39:03.320Z,15.58
2022-10-04T06:41:40.417Z,15.72
2022-10-04T06:44:17.171Z,15.79
2022-10-04T06:47:03.662Z,15.83
2022-10-04T06:49:39.388Z,15.67
2022-10-04T06:52:17.355Z,16.03
2022-10-04T06:54:47.092Z,16.20
2022-10-04T06:57:26.311Z,16.34
2022-10-04T06:59:52.946Z,16.26
2022-10-04T07:02:25.705Z,16.19
2022-10-04T07:05:08.108Z,16.30
2022-10-04T07:07:37.376Z,16.27
2022-10-04T07:10:11.518Z,16.07
2022-10-04T07:12:39.331Z,16.23
2022-10-04T07:15:08.576Z,16.04
2022-10-04T07:17:40.019Z,16.36
2022-10-04T07:20:07.134Z,16.56
2022-10-04T07:22:50.371Z,16.56
2022-10-04T07:25:30.735Z,16.59
2022-10-04T07:28:28.276Z,16.81
2022-10-04T07:30:59.733Z,17.02
2022-10-04T07:33:27.947Z,17.10
2022-10-04T07:35:56.216Z,16.74
2022-10-04T07:38:26.831Z,17.41
2022-10-04T07:41:08.464Z,17.78
2022-10-04T07:43:41.250Z,17.84
2022-10-04T07:46:13.456Z,18.48
2022-10-04T07:48:40.761Z,18.69
2022-10-04T07:51:12.837Z,18.83
2022-10-04T07:53:55.930Z,18.99
2022-10-04T07:56:31.381Z,19.22
2022-10-04T07:59:17.988Z,19.18
2022-10-04T08:01:45.210Z,19.49
2022-10-04T08:04:12.653Z,19.62
2022-10-04T08:06:44.375Z,19.79
2022-10-04T08:09:11.176Z,19.63
2022-10-04T08:11:43.479Z,20.06
2022-10-04T08:14:22.394Z,20.08
2022-10-04T08:17:11.853Z,19.96
2022-10-04T08:19:50.939Z,20.31
2022-10-04T08:22:19.857Z,20.50
2022-10-04T08:24:53.377Z,20.20
2022-10-04T08:27:20.692Z,20.04
2022-10-04T08:29:52.382Z,19.91
2022-10-04T08:32:34.701Z,19.63
2022-10-04T08:35:20.452Z,19.74
2022-10-04T08:38:08.538Z,19.31
2022-10-04T08:40:43.317Z,20.18
2022-10-04T08:43:23.328Z,20.60
2022-10-04T08:45:56.472Z,20.47
2022-10-04T08:48:24.821Z,20.46
2022-10-04T08:50:58.942Z,20.61
2022-10-04T08:53:31.682Z,20.40
2022-10-04T08:56:01.959Z,20.55
2022-10-04T08:58:41.150Z,20.35
2022-10-04T09:01:11.272Z,20.18
2022-10-04T09:04:01.774Z,20.46
2022-10-04T09:06:41.380Z,20.58
2022-10-04T09:09:20.400Z,20.10
2022-10-04T09:12:06.465Z,20.01
2022-10-04T09:14:38.826Z,20.00
2022-10-04T09:17:22.840Z,19.90
2022-10-04T09:19:50.213Z,19.69
2022-10-04T09:22:42.584Z,19.49
2022-10-04T09:25:14.181Z,19.74
2022-10-04T09:27:55.391Z,19.61
2022-10-04T09:30:23.226Z,20.20
2022-10-04T09:32:53.324Z,20.14
2022-10-04T09:35:35.127Z,20.24
2022-10-04T09:38:23.975Z,19.95
2022-10-04T09:41:09.600Z,19.71
2022-10-04T09:43:48.870Z,19.51
2022-10-04T09:46:21.351Z,19.34
2022-10-04T09:48:57.445Z,19.31
2022-10-04T09:51:42.202Z,19.28
2022-10-04T09:54:15.745Z,19.43
2022-10-04T09:56:48.877Z,19.44
2022-10-04T09:59:36.551Z,19.33
2022-10-04T10:02:10.057Z,19.46
2022-10-04T10:04:52.453Z,19.19
2022-10-04T10:07:25.265Z,18.85
2022-10-04T10:10:17.094Z,18.86
2022-10-04T10:13:20.450Z,19.26
2022-10-04T10:15:59.749Z,19.25
2022-10-04T10:18:32.876Z,19.21
2022-10-04T10:21:09.070Z,19.19
2022-10-04T10:23:38.763Z,18.91
2022-10-04T10:26:25.003Z,18.99
2022-10-04T10:29:04.148Z,19.16
2022-10-04T10:31:36.058Z,18.83
2022-10-04T10:34:21.891Z,18.91
2022-10-04T10:36:49.054Z,18.96
2022-10-04T10:39:34.286Z,18.59
2022-10-04T10:42:14.895Z,18.63
2022-10-04T10:44:57.857Z,18.52
2022-10-04T10:47:31.075Z,18.66
2022-10-04T10:50:06.901Z,18.65
2022-10-04T10:52:46.103Z,18.63
2022-10-04T10:55:19.462Z,18.52
2022-10-04T10:57:53.436Z,18.62
2022-10-04T11:00:35.267Z,19.08
2022-10-04T11:03:13.606Z,19.24
2022-10-04T11:06:07.738Z,19.43
2022-10-04T11:09:07.281Z,19.46
2022-10-04T11:11:38.762Z,19.63
2022-10-04T11:14:24.436Z,19.84
2022-10-04T11:17:04.065Z,19.76
2022-10-04T11:19:31.031Z,20.04
2022-10-04T11:22:07.216Z,20.14
2022-10-04T11:24:43.328Z,19.91
2022-10-04T11:27:28.526Z,20.00
2022-10-04T11:29:55.673Z,19.66
2022-10-04T11:32:40.482Z,20.04
2022-10-04T11:35:07.467Z,20.18
2022-10-04T11:37:43.651Z,20.36
2022-10-04T11:40:10.611Z,20.23
2022-10-04T11:42:56.265Z,20.18
2022-10-04T11:45:41.955Z,20.49
2022-10-04T11:48:27.291Z,20.41
2022-10-04T11:50:57.296Z,20.69
2022-10-04T11:53:33.603Z,20.38
2022-10-04T11:56:21.494Z,20.25
2022-10-04T11:59:07.032Z,20.14
2022-10-04T12:01:46.883Z,19.93
2022-10-04T12:04:32.772Z,20.09
2022-10-04T12:07:07.584Z,19.94
2022-10-04T12:09:46.582Z,19.73
2022-10-04T12:12:38.073Z,19.88
2022-10-04T12:15:28.098Z,19.89
2022-10-04T12:18:14.799Z,19.70
2022-10-04T12:20:55.252Z,19.66
2022-10-04T12:23:48.469Z,19.07
2022-10-04T12:26:25.719Z,18.95
2022-10-04T12:29:02.420Z,18.97
2022-10-04T12:31:34.719Z,19.16
2022-10-04T12:34:16.651Z,19.07
2022-10-04T12:37:02.069Z,19.29
2022-10-04T12:39:34.719Z,18.88
2022-10-04T12:42:15.527Z,18.97
2022-10-04T12:44:59.084Z,19.07
2022-10-04T12:47:39.141Z,19.27
2022-10-04T12:50:27.076Z,19.00
2022-10-04T12:52:57.406Z,19.03
2022-10-04T12:55:47.106Z,19.55
2022-10-04T12:58:29.252Z,19.29
2022-10-04T13:01:02.192Z,19.60
2022-10-04T13:03:41.767Z,19.60
2022-10-04T13:06:12.415Z,19.71
2022-10-04T13:08:58.293Z,19.85
2022-10-04T13:11:24.956Z,19.85
2022-10-04T13:14:14.873Z,19.81
2022-10-04T13:19:50.226Z,19.98
2022-10-04T13:22:51.276Z,20.15
2022-10-04T13:25:14.555Z,20.20
2022-10-04T13:27:58.025Z,20.06
2022-10-04T13:30:33.860Z,20.20
2022-10-04T13:33:23.816Z,19.89
2022-10-04T13:35:54.984Z,19.82
2022-10-04T13:38:28.002Z,20.12
2022-10-04T13:40:56.072Z,19.98
2022-10-04T13:43:28.234Z,20.18
2022-10-04T13:46:11.235Z,20.07
2022-10-04T13:48:42.438Z,20.04
2022-10-04T13:51:28.089Z,20.18
2022-10-04T13:54:16.736Z,19.86
2022-10-04T13:56:55.783Z,20.16
2022-10-04T13:59:33.629Z,20.22
2022-10-04T14:02:10.174Z,20.14
2022-10-04T14:04:42.845Z,20.23
2022-10-04T14:07:15.264Z,20.04
2022-10-04T14:10:01.546Z,20.07
2022-10-04T14:12:28.303Z,20.05
2022-10-04T14:15:07.273Z,19.83
2022-10-04T14:17:54.325Z,20.11
2022-10-04T14:20:41.180Z,20.07
2022-10-04T14:23:22.140Z,20.07
2022-10-04T14:25:59.778Z,20.01
2022-10-04T14:28:38.612Z,19.95
2022-10-04T14:31:08.662Z,19.90
2022-10-04T14:33:55.601Z,19.78
2022-10-04T14:36:22.784Z,19.75
2022-10-04T14:38:52.588Z,19.83
2022-10-04T14:41:28.152Z,19.95
2022-10-04T14:44:10.439Z,20.11
2022-10-04T14:46:56.352Z,20.03
2022-10-04T14:49:46.666Z,20.03
2022-10-04T14:52:32.742Z,19.69
2022-10-04T14:55:10.268Z,19.95
2022-10-04T14:57:42.468Z,19.78
2022-10-04T15:00:17.279Z,19.81
2022-10-04T15:02:54.638Z,19.64
2022-10-04T15:05:33.889Z,19.74
2022-10-04T15:08:19.260Z,19.32
2022-10-04T15:10:48.678Z,19.48
2022-10-04T15:13:26.119Z,19.55
2022-10-04T15:15:55.237Z,19.50
2022-10-04T15:18:27.433Z,19.58
2022-10-04T15:20:55.709Z,19.09
2022-10-04T15:23:35.107Z,19.23
2022-10-04T15:26:02.014Z,19.26
2022-10-04T15:28:47.461Z,19.10
2022-10-04T15:31:33.319Z,19.13
2022-10-04T15:34:20.025Z,19.33
2022-10-04T15:36:57.135Z,19.32
2022-10-04T15:39:23.851Z,19.29
2022-10-04T15:41:53.799Z,19.34
2022-10-04T15:44:39.468Z,19.41
2022-10-04T15:47:07.338Z,19.33
2022-10-04T15:49:53.031Z,19.32
2022-10-04T15:52:19.968Z,19.32
2022-10-04T15:54:52.004Z,19.37
2022-10-04T15:57:37.447Z,19.33
2022-10-04T16:00:22.884Z,19.27
2022-10-04T16:03:10.777Z,19.27
2022-10-04T16:05:47.461Z,19.03
2022-10-04T16:08:18.699Z,19.05
2022-10-04T16:10:48.482Z,19.13
2022-10-04T16:13:15.387Z,18.91
2022-10-04T16:15:42.461Z,18.88
2022-10-04T16:18:18.194Z,18.86
2022-10-04T16:21:07.945Z,18.72
2022-10-04T16:23:35.805Z,18.53
2022-10-04T16:26:14.101Z,18.55
2022-10-04T16:29:02.027Z,18.51
2022-10-04T16:31:48.952Z,18.43
2022-10-04T16:34:15.587Z,18.33
2022-10-04T16:36:45.110Z,18.41
2022-10-04T16:39:30.955Z,18.35
2022-10-04T16:41:58.915Z,18.25
2022-10-04T16:44:34.700Z,18.13
2022-10-04T16:47:03.468Z,18.10
2022-10-04T16:49:40.867Z,17.92
2022-10-04T16:52:12.445Z,17.78
2022-10-04T16:54:42.936Z,17.90
2022-10-04T16:57:14.023Z,17.88
2022-10-04T16:59:41.948Z,17.73
2022-10-04T17:02:11.602Z,17.60
2022-10-04T17:04:41.749Z,17.54
2022-10-04T17:07:13.926Z,17.50
2022-10-04T17:09:59.033Z,17.48
2022-10-04T17:12:28.090Z,17.35
2022-10-04T17:14:55.152Z,17.16
2022-10-04T17:17:21.787Z,17.01
2022-10-04T17:19:52.709Z,17.02
2022-10-04T17:22:35.101Z,17.02
2022-10-04T17:25:15.111Z,16.96
2022-10-04T17:27:46.685Z,16.81
2022-10-04T17:30:21.814Z,16.53
2022-10-04T17:32:52.510Z,16.74
2022-10-04T17:35:19.310Z,16.63
2022-10-04T17:38:04.970Z,16.51
2022-10-04T17:40:51.205Z,16.60
2022-10-04T17:43:18.960Z,16.45
2022-10-04T17:46:05.091Z,16.49
2022-10-04T17:48:51.561Z,16.49
2022-10-04T17:51:50.282Z,16.46
2022-10-04T17:54:55.687Z,16.38
2022-10-04T17:57:27.510Z,16.34
2022-10-04T18:00:13.280Z,16.13
2022-10-04T18:02:52.821Z,16.34
2022-10-04T18:05:27.580Z,16.34
2022-10-04T18:08:00.263Z,16.16
2022-10-04T18:10:46.074Z,16.35
2022-10-04T18:13:15.110Z,16.21
2022-10-04T18:15:43.737Z,16.26
2022-10-04T18:18:10.493Z,16.20
2022-10-04T18:20:39.241Z,16.11
2022-10-04T18:23:17.022Z,16.20
2022-10-04T18:25:44.788Z,16.20
2022-10-04T18:28:13.200Z,16.23
2022-10-04T18:30:46.294Z,16.24
2022-10-04T18:33:14.497Z,16.22
2022-10-04T18:36:04.014Z,16.18
2022-10-04T18:38:41.711Z,16.14
2022-10-04T18:41:14.654Z,16.08
2022-10-04T18:43:42.911Z,16.04
2022-10-04T18:46:14.426Z,16.07
2022-10-04T18:48:45.210Z,15.76
2022-10-04T18:51:20.972Z,15.81
2022-10-04T18:53:51.169Z,15.88
2022-10-04T18:56:18.306Z,15.68
2022-10-04T18:59:22.799Z,15.71
2022-10-04T19:02:06.967Z,15.61
2022-10-04T19:04:54.812Z,15.49
2022-10-04T19:07:34.170Z,15.52
2022-10-04T19:10:10.047Z,15.62
2022-10-04T19:13:07.474Z,15.23
2022-10-04T19:15:56.439Z,15.34
2022-10-04T19:18:26.856Z,15.31
2022-10-04T19:21:12.857Z,15.14
2022-10-04T19:23:49.602Z,14.99
2022-10-04T19:26:31.516Z,15.13
2022-10-04T19:29:06.781Z,15.06
2022-10-04T19:31:42.065Z,15.08
2022-10-04T19:34:18.894Z,15.06
2022-10-04T19:36:51.970Z,14.80
2022-10-04T19:39:19.423Z,14.98
2022-10-04T19:42:02.275Z,14.91
2022-10-04T19:44:41.510Z,15.04
2022-10-04T19:47:29.173Z,15.01
2022-10-04T19:50:10.629Z,14.88
2022-10-04T19:52:44.654Z,14.62
2022-10-04T19:55:22.398Z,14.79
2022-10-04T19:57:50.968Z,14.77
2022-10-04T20:00:20.282Z,14.61
2022-10-04T20:02:48.871Z,14.54
2022-10-04T20:05:17.222Z,14.69
2022-10-04T20:07:48.546Z,14.61
2022-10-04T20:10:31.526Z,14.48
2022-10-04T20:13:12.444Z,14.42
2022-10-04T20:15:43.432Z,14.64
2022-10-04T20:18:29.487Z,14.51
2022-10-04T20:21:03.407Z,14.49
2022-10-04T20:23:39.474Z,14.66
2022-10-04T20:26:07.374Z,14.46
2022-10-04T20:28:38.636Z,14.23
2022-10-04T20:31:24.061Z,14.33
2022-10-04T20:33:51.176Z,14.34
2022-10-04T20:36:21.206Z,14.28
2022-10-04T20:38:54.053Z,14.41
2022-10-04T20:41:50.001Z,14.20
2022-10-04T20:44:35.531Z,14.27
2022-10-04T20:47:03.557Z,14.18
2022-10-04T20:49:38.132Z,14.11
2022-10-04T20:52:13.174Z,14.17
2022-10-04T20:54:54.450Z,14.22
2022-10-04T20:57:23.859Z,14.29
2022-10-04T20:59:51.754Z,14.13
2022-10-04T21:02:18.641Z,13.93
2022-10-04T21:04:47.444Z,14.14
2022-10-04T21:07:17.745Z,14.16
2022-10-04T21:09:44.418Z,14.04
2022-10-04T21:12:45.063Z,13.94
2022-10-04T21:15:17.502Z,14.03
2022-10-04T21:18:04.748Z,14.02
2022-10-04T21:20:44.975Z,13.96
2022-10-04T21:23:29.906Z,14.13
2022-10-04T21:26:15.405Z,14.02
2022-10-04T21:28:42.373Z,14.04
2022-10-04T21:31:09.045Z,14.19
2022-10-04T21:33:36.054Z,14.21
2022-10-04T21:36:03.521Z,14.26
2022-10-04T21:38:30.384Z,14.23
2022-10-04T21:40:57.064Z,14.21
2022-10-04T21:43:24.360Z,14.07
2022-10-04T21:45:51.142Z,14.14
2022-10-04T21:48:17.940Z,13.98
2022-10-04T21:50:44.925Z,14.00
2022-10-04T21:53:11.667Z,13.88
2022-10-04T21:55:40.619Z,13.94
2022-10-04T21:58:07.534Z,13.88
2022-10-04T22:00:34.270Z,13.84
2022-10-04T22:03:02.199Z,13.76
2022-10-04T22:05:29.483Z,13.90
2022-10-04T22:07:56.304Z,13.89
2022-10-04T22:10:23.411Z,13.80
2022-10-04T22:12:50.169Z,13.92
2022-10-04T22:15:16.923Z,13.89
2022-10-04T22:17:43.870Z,13.93
2022-10-04T22:20:10.541Z,13.89
2022-10-04T22:22:39.751Z,13.76
2022-10-04T22:25:20.281Z,13.83
2022-10-04T22:27:47.722Z,13.59
2022-10-04T22:30:19.351Z,13.70
2022-10-04T22:32:46.024Z,13.62
2022-10-04T22:35:13.735Z,13.46
2022-10-04T22:37:41.223Z,13.38
2022-10-04T22:40:13.796Z,13.26
2022-10-04T22:42:40.908Z,13.49
2022-10-04T22:45:09.676Z,13.45
2022-10-04T22:47:36.392Z,13.53
2022-10-04T22:50:06.220Z,13.43
2022-10-04T22:52:32.940Z,13.49
2022-10-04T22:55:00.417Z,13.25
2022-10-04T22:57:27.391Z,13.41
2022-10-04T22:59:55.338Z,13.53
2022-10-04T23:02:29.423Z,13.39
2022-10-04T23:04:57.218Z,13.35
2022-10-04T23:07:23.938Z,12.95
2022-10-04T23:09:50.684Z,13.31
2022-10-04T23:12:17.686Z,13.33
2022-10-04T23:14:44.377Z,13.28
2022-10-04T23:17:28.134Z,13.26
2022-10-04T23:19:57.142Z,13.24
2022-10-04T23:22:26.829Z,13.06
2022-10-04T23:24:54.082Z,12.95
2022-10-04T23:27:21.061Z,13.23
2022-10-04T23:29:48.471Z,13.30
2022-10-04T23:32:16.188Z,13.24
2022-10-04T23:34:49.395Z,13.02
2022-10-04T23:37:25.821Z,13.06
2022-10-04T23:39:52.762Z,12.97
2022-10-04T23:42:20.687Z,13.02
2022-10-04T23:44:48.105Z,13.07
2022-10-04T23:47:16.422Z,12.97
2022-10-04T23:49:43.202Z,13.05
2022-10-04T23:52:14.929Z,13.11
2022-10-04T23:54:41.953Z,13.04
2022-10-04T23:57:09.547Z,12.96
2022-10-04T23:59:36.214Z,13.06
